sensor_id;sensor_type;location;lat;lon;timestamp;pressure;altitude;pressure_sealevel;temperature;humidity
49216;BME280;45943;53.148;8.204;2022-09-09T00:02:21;100768.31;;;20.73;100.00
49216;BME280;45943;53.148;8.204;2022-09-09T00:15:41;100761.50;;;20.98;100.00
49216;BME280;45943;53.148;8.204;2022-09-09T00:18:18;100760.97;;;20.88;100.00
49216;BME280;45943;53.148;8.204;2022-09-09T00:20:59;100766.34;;;20.81;100.00
49216;BME280;45943;53.148;8.204;2022-09-09T00:23:32;100759.41;;;20.64;100.00
49216;BME280;45943;53.148;8.204;2022-09-09T00:31:23;100774.06;;;21.14;100.00
49216;BME280;45943;53.148;8.204;2022-09-09T00:33:55;100771.09;;;20.94;100.00
49216;BME280;45943;53.148;8.204;2022-09-09T00:36:26;100775.63;;;20.87;100.00
49216;BME280;45943;53.148;8.204;2022-09-09T00:38:58;100770.19;;;20.87;100.00
49216;BME280;45943;53.148;8.204;2022-09-09T00:50:00;100772.28;;;20.85;100.00
49216;BME280;45943;53.148;8.204;2022-09-09T00:52:32;100766.13;;;20.83;100.00
49216;BME280;45943;53.148;8.204;2022-09-09T00:55:24;100767.50;;;20.94;100.00
49216;BME280;45943;53.148;8.204;2022-09-09T00:57:59;100757.59;;;20.86;100.00
49216;BME280;45943;53.148;8.204;2022-09-09T01:00:26;100760.53;;;20.70;100.00
49216;BME280;45943;53.148;8.204;2022-09-09T01:08:53;100756.53;;;20.21;100.00
49216;BME280;45943;53.148;8.204;2022-09-09T01:11:49;100775.69;;;20.43;100.00
49216;BME280;45943;53.148;8.204;2022-09-09T01:14:32;100769.72;;;20.47;100.00
49216;BME280;45943;53.148;8.204;2022-09-09T01:19:57;100758.41;;;20.50;100.00
49216;BME280;45943;53.148;8.204;2022-09-09T01:22:35;100770.06;;;20.44;100.00
49216;BME280;45943;53.148;8.204;2022-09-09T01:25:15;100755.94;;;20.41;100.00
49216;BME280;45943;53.148;8.204;2022-09-09T01:28:02;100747.78;;;20.41;100.00
49216;BME280;45943;53.148;8.204;2022-09-09T01:30:33;100751.38;;;20.26;100.00
49216;BME280;45943;53.148;8.204;2022-09-09T01:33:00;100758.31;;;20.14;100.00
49216;BME280;45943;53.148;8.204;2022-09-09T01:37:56;100749.75;;;20.02;100.00
49216;BME280;45943;53.148;8.204;2022-09-09T01:40:23;100744.13;;;20.04;100.00
49216;BME280;45943;53.148;8.204;2022-09-09T01:42:51;100746.00;;;20.03;100.00
49216;BME280;45943;53.148;8.204;2022-09-09T01:45:18;100749.69;;;20.11;100.00
49216;BME280;45943;53.148;8.204;2022-09-09T01:47:45;100743.66;;;21.38;100.00
49216;BME280;45943;53.148;8.204;2022-09-09T01:50:12;100735.94;;;22.32;100.00
49216;BME280;45943;53.148;8.204;2022-09-09T01:52:41;100730.44;;;22.80;100.00
49216;BME280;45943;53.148;8.204;2022-09-09T01:55:09;100734.09;;;22.05;100.00
49216;BME280;45943;53.148;8.204;2022-09-09T01:57:39;100734.72;;;20.51;100.00
49216;BME280;45943;53.148;8.204;2022-09-09T02:00:17;100739.25;;;20.29;100.00
49216;BME280;45943;53.148;8.204;2022-09-09T02:05:41;100732.84;;;23.16;100.00
49216;BME280;45943;53.148;8.204;2022-09-09T02:08:15;100729.66;;;22.32;100.00
49216;BME280;45943;53.148;8.204;2022-09-09T02:10:56;100728.88;;;21.82;100.00
49216;BME280;45943;53.148;8.204;2022-09-09T02:13:27;100733.34;;;21.90;100.00
49216;BME280;45943;53.148;8.204;2022-09-09T02:16:00;100732.47;;;21.55;100.00
49216;BME280;45943;53.148;8.204;2022-09-09T02:21:07;100731.50;;;21.41;100.00
49216;BME280;45943;53.148;8.204;2022-09-09T02:23:37;100730.13;;;21.52;100.00
49216;BME280;45943;53.148;8.204;2022-09-09T02:26:06;100723.75;;;22.00;100.00
49216;BME280;45943;53.148;8.204;2022-09-09T02:28:35;100721.00;;;22.00;100.00
49216;BME280;45943;53.148;8.204;2022-09-09T02:31:04;100728.56;;;20.78;100.00
49216;BME280;45943;53.148;8.204;2022-09-09T02:33:33;100727.03;;;21.89;100.00
49216;BME280;45943;53.148;8.204;2022-09-09T02:36:16;100723.53;;;22.02;100.00
49216;BME280;45943;53.148;8.204;2022-09-09T02:38:47;100725.56;;;21.87;100.00
49216;BME280;45943;53.148;8.204;2022-09-09T02:41:19;100716.47;;;22.08;100.00
49216;BME280;45943;53.148;8.204;2022-09-09T02:43:48;100724.56;;;21.38;100.00
49216;BME280;45943;53.148;8.204;2022-09-09T02:46:20;100732.16;;;21.71;100.00
49216;BME280;45943;53.148;8.204;2022-09-09T02:49:02;100723.81;;;22.07;100.00
49216;BME280;45943;53.148;8.204;2022-09-09T02:51:36;100725.63;;;21.93;100.00
49216;BME280;45943;53.148;8.204;2022-09-09T02:54:14;100729.13;;;22.15;100.00
49216;BME280;45943;53.148;8.204;2022-09-09T02:56:49;100726.41;;;22.15;100.00
49216;BME280;45943;53.148;8.204;2022-09-09T02:59:20;100726.94;;;22.04;100.00
49216;BME280;45943;53.148;8.204;2022-09-09T03:01:47;100723.84;;;22.55;100.00
49216;BME280;45943;53.148;8.204;2022-09-09T03:04:13;100726.25;;;21.95;100.00
49216;BME280;45943;53.148;8.204;2022-09-09T03:06:39;100733.19;;;22.26;100.00
49216;BME280;45943;53.148;8.204;2022-09-09T03:09:05;100724.97;;;22.26;100.00
49216;BME280;45943;53.148;8.204;2022-09-09T03:11:31;100729.34;;;22.14;100.00
49216;BME280;45943;53.148;8.204;2022-09-09T03:13:57;100733.97;;;22.13;100.00
49216;BME280;45943;53.148;8.204;2022-09-09T03:16:23;100724.81;;;22.41;100.00
49216;BME280;45943;53.148;8.204;2022-09-09T03:18:49;100725.69;;;22.48;100.00
49216;BME280;45943;53.148;8.204;2022-09-09T03:21:16;100730.59;;;20.40;100.00
49216;BME280;45943;53.148;8.204;2022-09-09T03:23:42;100733.22;;;20.04;100.00
49216;BME280;45943;53.148;8.204;2022-09-09T03:26:07;100735.13;;;19.89;100.00
49216;BME280;45943;53.148;8.204;2022-09-09T03:28:33;100744.59;;;19.93;100.00
49216;BME280;45943;53.148;8.204;2022-09-09T03:31:01;100753.16;;;17.97;100.00
49216;BME280;45943;53.148;8.204;2022-09-09T03:33:28;100761.34;;;17.64;100.00
49216;BME280;45943;53.148;8.204;2022-09-09T03:35:55;100741.91;;;18.08;100.00
49216;BME280;45943;53.148;8.204;2022-09-09T03:38:25;100751.69;;;17.54;100.00
49216;BME280;45943;53.148;8.204;2022-09-09T03:40:52;100753.72;;;17.76;100.00
49216;BME280;45943;53.148;8.204;2022-09-09T03:43:23;100751.84;;;17.44;100.00
49216;BME280;45943;53.148;8.204;2022-09-09T03:45:50;100760.50;;;17.31;100.00
49216;BME280;45943;53.148;8.204;2022-09-09T03:48:17;100760.50;;;17.31;100.00
49216;BME280;45943;53.148;8.204;2022-09-09T03:50:50;100761.00;;;17.35;100.00
49216;BME280;45943;53.148;8.204;2022-09-09T03:53:18;100760.31;;;17.82;100.00
49216;BME280;45943;53.148;8.204;2022-09-09T03:55:46;100762.25;;;18.20;100.00
49216;BME280;45943;53.148;8.204;2022-09-09T03:58:13;100761.75;;;18.56;100.00
49216;BME280;45943;53.148;8.204;2022-09-09T04:00:40;100772.06;;;18.29;100.00
49216;BME280;45943;53.148;8.204;2022-09-09T04:03:08;100771.66;;;18.01;100.00
49216;BME280;45943;53.148;8.204;2022-09-09T04:05:35;100781.34;;;17.63;100.00
49216;BME280;45943;53.148;8.204;2022-09-09T04:08:08;100781.00;;;17.42;100.00
49216;BME280;45943;53.148;8.204;2022-09-09T04:10:34;100782.22;;;17.72;100.00
49216;BME280;45943;53.148;8.204;2022-09-09T04:13:03;100776.06;;;18.02;100.00
49216;BME280;45943;53.148;8.204;2022-09-09T04:15:30;100768.84;;;18.26;100.00
49216;BME280;45943;53.148;8.204;2022-09-09T04:17:56;100779.72;;;18.18;100.00
49216;BME280;45943;53.148;8.204;2022-09-09T04:20:22;100782.34;;;17.38;100.00
49216;BME280;45943;53.148;8.204;2022-09-09T04:22:49;100783.19;;;17.79;100.00
49216;BME280;45943;53.148;8.204;2022-09-09T04:25:15;100782.84;;;17.58;100.00
49216;BME280;45943;53.148;8.204;2022-09-09T04:27:41;100788.63;;;17.63;100.00
49216;BME280;45943;53.148;8.204;2022-09-09T04:30:08;100780.50;;;17.46;100.00
49216;BME280;45943;53.148;8.204;2022-09-09T04:32:34;100781.69;;;17.44;100.00
49216;BME280;45943;53.148;8.204;2022-09-09T04:35:02;100785.91;;;17.79;100.00
49216;BME280;45943;53.148;8.204;2022-09-09T04:37:28;100784.94;;;17.72;100.00
49216;BME280;45943;53.148;8.204;2022-09-09T04:39:54;100781.97;;;18.06;100.00
49216;BME280;45943;53.148;8.204;2022-09-09T04:42:21;100779.09;;;18.55;100.00
49216;BME280;45943;53.148;8.204;2022-09-09T04:44:47;100787.09;;;17.44;100.00
49216;BME280;45943;53.148;8.204;2022-09-09T04:47:13;100791.84;;;17.26;100.00
49216;BME280;45943;53.148;8.204;2022-09-09T04:49:39;100795.56;;;17.25;100.00
49216;BME280;45943;53.148;8.204;2022-09-09T04:52:06;100798.59;;;17.30;100.00
49216;BME280;45943;53.148;8.204;2022-09-09T04:54:32;100789.63;;;17.05;100.00
49216;BME280;45943;53.148;8.204;2022-09-09T04:56:58;100785.56;;;17.25;100.00
49216;BME280;45943;53.148;8.204;2022-09-09T04:59:24;100794.72;;;17.16;100.00
49216;BME280;45943;53.148;8.204;2022-09-09T05:01:50;100790.63;;;17.04;100.00
49216;BME280;45943;53.148;8.204;2022-09-09T05:04:16;100799.13;;;17.49;100.00
49216;BME280;45943;53.148;8.204;2022-09-09T05:06:42;100807.13;;;17.51;100.00
49216;BME280;45943;53.148;8.204;2022-09-09T05:09:08;100805.06;;;17.12;100.00
49216;BME280;45943;53.148;8.204;2022-09-09T05:11:34;100803.69;;;17.49;100.00
49216;BME280;45943;53.148;8.204;2022-09-09T05:14:02;100808.09;;;17.50;100.00
49216;BME280;45943;53.148;8.204;2022-09-09T05:16:28;100812.00;;;17.47;100.00
49216;BME280;45943;53.148;8.204;2022-09-09T05:18:55;100818.63;;;17.53;100.00
49216;BME280;45943;53.148;8.204;2022-09-09T05:21:22;100808.41;;;18.20;100.00
49216;BME280;45943;53.148;8.204;2022-09-09T05:23:51;100817.28;;;17.57;100.00
49216;BME280;45943;53.148;8.204;2022-09-09T05:26:19;100819.97;;;17.25;100.00
49216;BME280;45943;53.148;8.204;2022-09-09T05:28:46;100823.22;;;17.44;100.00
49216;BME280;45943;53.148;8.204;2022-09-09T05:31:13;100818.47;;;17.95;100.00
49216;BME280;45943;53.148;8.204;2022-09-09T05:33:41;100818.66;;;17.86;100.00
49216;BME280;45943;53.148;8.204;2022-09-09T05:36:10;100810.09;;;18.21;100.00
49216;BME280;45943;53.148;8.204;2022-09-09T05:38:39;100816.22;;;18.23;100.00
49216;BME280;45943;53.148;8.204;2022-09-09T05:41:06;100823.06;;;17.87;100.00
49216;BME280;45943;53.148;8.204;2022-09-09T05:43:33;100828.47;;;17.87;100.00
49216;BME280;45943;53.148;8.204;2022-09-09T05:48:31;100824.25;;;17.84;100.00
49216;BME280;45943;53.148;8.204;2022-09-09T05:50:58;100822.34;;;18.09;100.00
49216;BME280;45943;53.148;8.204;2022-09-09T05:53:25;100830.59;;;18.40;100.00
49216;BME280;45943;53.148;8.204;2022-09-09T05:56:02;100828.53;;;18.42;100.00
49216;BME280;45943;53.148;8.204;2022-09-09T05:58:30;100824.22;;;18.56;100.00
49216;BME280;45943;53.148;8.204;2022-09-09T06:01:00;100819.09;;;20.29;100.00
49216;BME280;45943;53.148;8.204;2022-09-09T06:03:39;100819.38;;;20.64;100.00
49216;BME280;45943;53.148;8.204;2022-09-09T06:06:06;100810.09;;;20.44;100.00
49216;BME280;45943;53.148;8.204;2022-09-09T06:08:35;100810.13;;;20.95;100.00
49216;BME280;45943;53.148;8.204;2022-09-09T06:13:34;100814.22;;;21.41;100.00
49216;BME280;45943;53.148;8.204;2022-09-09T06:16:03;100821.63;;;21.26;100.00
49216;BME280;45943;53.148;8.204;2022-09-09T06:18:29;100816.41;;;21.53;100.00
49216;BME280;45943;53.148;8.204;2022-09-09T06:20:59;100819.75;;;20.31;100.00
49216;BME280;45943;53.148;8.204;2022-09-09T06:23:27;100822.97;;;20.50;100.00
49216;BME280;45943;53.148;8.204;2022-09-09T06:26:01;100822.94;;;20.35;100.00
49216;BME280;45943;53.148;8.204;2022-09-09T06:28:35;100817.09;;;20.23;100.00
49216;BME280;45943;53.148;8.204;2022-09-09T06:31:03;100812.91;;;20.50;100.00
49216;BME280;45943;53.148;8.204;2022-09-09T06:33:32;100813.84;;;20.28;100.00
49216;BME280;45943;53.148;8.204;2022-09-09T06:36:00;100810.03;;;21.24;100.00
49216;BME280;45943;53.148;8.204;2022-09-09T06:38:27;100814.56;;;20.81;100.00
49216;BME280;45943;53.148;8.204;2022-09-09T06:40:54;100819.66;;;20.40;100.00
49216;BME280;45943;53.148;8.204;2022-09-09T06:43:21;100813.53;;;21.18;100.00
49216;BME280;45943;53.148;8.204;2022-09-09T06:48:35;100800.34;;;21.86;100.00
49216;BME280;45943;53.148;8.204;2022-09-09T06:51:06;100808.56;;;22.48;100.00
49216;BME280;45943;53.148;8.204;2022-09-09T06:53:41;100799.00;;;22.72;100.00
49216;BME280;45943;53.148;8.204;2022-09-09T06:58:38;100805.44;;;21.25;100.00
49216;BME280;45943;53.148;8.204;2022-09-09T07:01:12;100798.25;;;21.24;100.00
49216;BME280;45943;53.148;8.204;2022-09-09T07:03:40;100802.63;;;21.18;100.00
49216;BME280;45943;53.148;8.204;2022-09-09T07:06:08;100809.41;;;21.65;100.00
49216;BME280;45943;53.148;8.204;2022-09-09T07:08:40;100810.75;;;21.33;100.00
49216;BME280;45943;53.148;8.204;2022-09-09T07:11:07;100814.69;;;21.45;100.00
49216;BME280;45943;53.148;8.204;2022-09-09T07:13:34;100807.56;;;21.08;100.00
49216;BME280;45943;53.148;8.204;2022-09-09T07:16:04;100813.75;;;21.59;100.00
49216;BME280;45943;53.148;8.204;2022-09-09T07:18:32;100809.41;;;21.65;100.00
49216;BME280;45943;53.148;8.204;2022-09-09T07:20:58;100813.94;;;21.79;100.00
49216;BME280;45943;53.148;8.204;2022-09-09T07:23:24;100816.75;;;22.14;100.00
49216;BME280;45943;53.148;8.204;2022-09-09T07:25:51;100811.63;;;22.32;100.00
49216;BME280;45943;53.148;8.204;2022-09-09T07:28:21;100815.50;;;22.16;100.00
49216;BME280;45943;53.148;8.204;2022-09-09T07:30:58;100827.84;;;21.63;100.00
49216;BME280;45943;53.148;8.204;2022-09-09T07:33:29;100825.59;;;21.45;100.00
49216;BME280;45943;53.148;8.204;2022-09-09T07:36:06;100824.28;;;21.41;100.00
49216;BME280;45943;53.148;8.204;2022-09-09T07:38:41;100821.50;;;22.05;100.00
49216;BME280;45943;53.148;8.204;2022-09-09T07:41:12;100821.22;;;22.00;100.00
49216;BME280;45943;53.148;8.204;2022-09-09T07:43:41;100830.06;;;22.23;100.00
49216;BME280;45943;53.148;8.204;2022-09-09T07:46:08;100819.13;;;22.58;100.00
49216;BME280;45943;53.148;8.204;2022-09-09T07:48:35;100819.97;;;22.58;100.00
49216;BME280;45943;53.148;8.204;2022-09-09T07:51:10;100817.84;;;22.95;100.00
49216;BME280;45943;53.148;8.204;2022-09-09T07:53:43;100827.78;;;22.61;100.00
49216;BME280;45943;53.148;8.204;2022-09-09T07:56:10;100823.41;;;23.28;100.00
49216;BME280;45943;53.148;8.204;2022-09-09T07:58:39;100819.25;;;23.52;100.00
49216;BME280;45943;53.148;8.204;2022-09-09T08:01:07;100825.75;;;23.58;100.00
49216;BME280;45943;53.148;8.204;2022-09-09T08:03:34;100824.75;;;23.65;100.00
49216;BME280;45943;53.148;8.204;2022-09-09T08:06:02;100829.34;;;23.52;100.00
49216;BME280;45943;53.148;8.204;2022-09-09T08:08:29;100822.38;;;23.36;100.00
49216;BME280;45943;53.148;8.204;2022-09-09T08:11:03;100832.16;;;22.97;100.00
49216;BME280;45943;53.148;8.204;2022-09-09T08:13:34;100824.25;;;22.74;100.00
49216;BME280;45943;53.148;8.204;2022-09-09T08:16:07;100834.06;;;22.27;100.00
49216;BME280;45943;53.148;8.204;2022-09-09T08:18:39;100826.31;;;22.66;100.00
49216;BME280;45943;53.148;8.204;2022-09-09T08:21:06;100814.56;;;22.72;100.00
49216;BME280;45943;53.148;8.204;2022-09-09T08:23:34;100810.69;;;23.01;100.00
49216;BME280;45943;53.148;8.204;2022-09-09T08:26:04;100815.31;;;22.94;100.00
49216;BME280;45943;53.148;8.204;2022-09-09T08:28:51;100824.00;;;22.69;100.00
49216;BME280;45943;53.148;8.204;2022-09-09T08:31:19;100820.44;;;23.23;100.00
49216;BME280;45943;53.148;8.204;2022-09-09T08:33:50;100826.44;;;22.85;100.00
49216;BME280;45943;53.148;8.204;2022-09-09T08:36:19;100820.44;;;23.23;100.00
49216;BME280;45943;53.148;8.204;2022-09-09T08:38:47;100819.63;;;23.36;100.00
49216;BME280;45943;53.148;8.204;2022-09-09T08:43:48;100819.50;;;23.90;100.00
49216;BME280;45943;53.148;8.204;2022-09-09T08:48:52;100822.56;;;23.21;100.00
49216;BME280;45943;53.148;8.204;2022-09-09T08:51:25;100834.69;;;22.99;100.00
49216;BME280;45943;53.148;8.204;2022-09-09T08:53:56;100828.66;;;23.23;100.00
49216;BME280;45943;53.148;8.204;2022-09-09T08:56:26;100825.59;;;23.59;100.00
49216;BME280;45943;53.148;8.204;2022-09-09T08:58:56;100825.13;;;23.42;100.00
49216;BME280;45943;53.148;8.204;2022-09-09T09:12:27;100851.06;;;23.53;100.00
49216;BME280;45943;53.148;8.204;2022-09-09T09:14:56;100849.63;;;23.70;100.00
49216;BME280;45943;53.148;8.204;2022-09-09T09:17:25;100851.13;;;23.99;100.00
49216;BME280;45943;53.148;8.204;2022-09-09T09:19:55;100844.91;;;24.64;100.00
49216;BME280;45943;53.148;8.204;2022-09-09T09:22:22;100847.50;;;25.10;100.00
49216;BME280;45943;53.148;8.204;2022-09-09T09:24:55;100853.19;;;25.46;100.00
49216;BME280;45943;53.148;8.204;2022-09-09T09:27:31;100853.97;;;25.92;100.00
49216;BME280;45943;53.148;8.204;2022-09-09T09:30:02;100852.50;;;25.89;100.00
49216;BME280;45943;53.148;8.204;2022-09-09T09:32:38;100844.88;;;26.16;100.00
49216;BME280;45943;53.148;8.204;2022-09-09T09:35:09;100845.53;;;26.12;96.72
49216;BME280;45943;53.148;8.204;2022-09-09T09:37:39;100850.56;;;25.96;100.00
49216;BME280;45943;53.148;8.204;2022-09-09T09:40:16;100850.00;;;26.38;93.48
49216;BME280;45943;53.148;8.204;2022-09-09T09:45:35;100849.28;;;26.42;89.78
49216;BME280;45943;53.148;8.204;2022-09-09T09:48:11;100847.03;;;26.76;90.30
49216;BME280;45943;53.148;8.204;2022-09-09T09:53:26;100845.66;;;26.85;80.58
49216;BME280;45943;53.148;8.204;2022-09-09T09:56:01;100851.00;;;26.80;81.96
49216;BME280;45943;53.148;8.204;2022-09-09T09:58:31;100851.91;;;26.37;97.89
49216;BME280;45943;53.148;8.204;2022-09-09T10:00:59;100846.72;;;26.22;87.59
49216;BME280;45943;53.148;8.204;2022-09-09T10:03:30;100847.72;;;26.03;92.23
49216;BME280;45943;53.148;8.204;2022-09-09T10:05:58;100850.22;;;26.54;88.44
49216;BME280;45943;53.148;8.204;2022-09-09T10:08:24;100845.34;;;26.75;87.89
49216;BME280;45943;53.148;8.204;2022-09-09T10:17:12;100838.78;;;28.19;76.22
49216;BME280;45943;53.148;8.204;2022-09-09T10:19:31;100836.41;;;28.46;69.62
49216;BME280;45943;53.148;8.204;2022-09-09T10:28:01;100843.44;;;27.84;73.56
49216;BME280;45943;53.148;8.204;2022-09-09T10:30:51;100831.81;;;27.52;77.25
49216;BME280;45943;53.148;8.204;2022-09-09T10:33:34;100846.28;;;27.05;74.94
49216;BME280;45943;53.148;8.204;2022-09-09T10:36:17;100836.13;;;26.99;77.65
49216;BME280;45943;53.148;8.204;2022-09-09T10:39:16;100839.56;;;27.43;76.51
49216;BME280;45943;53.148;8.204;2022-09-09T10:42:06;100835.66;;;28.51;64.97
49216;BME280;45943;53.148;8.204;2022-09-09T10:44:50;100841.19;;;28.16;64.02
49216;BME280;45943;53.148;8.204;2022-09-09T10:47:43;100848.69;;;28.79;65.82
49216;BME280;45943;53.148;8.204;2022-09-09T10:53:14;100841.44;;;28.14;68.33
49216;BME280;45943;53.148;8.204;2022-09-09T10:55:56;100843.81;;;28.11;66.16
49216;BME280;45943;53.148;8.204;2022-09-09T10:58:28;100840.53;;;27.79;68.60
49216;BME280;45943;53.148;8.204;2022-09-09T11:01:03;100840.22;;;28.10;66.43
49216;BME280;45943;53.148;8.204;2022-09-09T11:03:37;100832.44;;;28.54;61.22
49216;BME280;45943;53.148;8.204;2022-09-09T11:06:06;100840.16;;;29.04;62.55
49216;BME280;45943;53.148;8.204;2022-09-09T11:08:43;100825.75;;;30.87;57.78
49216;BME280;45943;53.148;8.204;2022-09-09T11:14:01;100831.69;;;32.40;49.29
49216;BME280;45943;53.148;8.204;2022-09-09T11:16:53;100838.25;;;31.87;49.66
49216;BME280;45943;53.148;8.204;2022-09-09T11:19:42;100846.50;;;30.45;51.54
49216;BME280;45943;53.148;8.204;2022-09-09T11:27:29;100838.03;;;31.99;46.82
49216;BME280;45943;53.148;8.204;2022-09-09T11:38:48;100829.59;;;32.20;48.58
49216;BME280;45943;53.148;8.204;2022-09-09T11:41:17;100849.28;;;31.28;49.56
49216;BME280;45943;53.148;8.204;2022-09-09T11:46:22;100847.88;;;29.47;57.97
49216;BME280;45943;53.148;8.204;2022-09-09T11:49:02;100840.84;;;28.47;61.77
49216;BME280;45943;53.148;8.204;2022-09-09T11:51:31;100846.84;;;27.26;65.36
49216;BME280;45943;53.148;8.204;2022-09-09T11:53:59;100836.63;;;27.14;77.59
49216;BME280;45943;53.148;8.204;2022-09-09T11:56:46;100842.56;;;26.93;83.01
49216;BME280;45943;53.148;8.204;2022-09-09T12:04:49;100829.41;;;33.83;100.00
49216;BME280;45943;53.148;8.204;2022-09-09T12:10:20;100828.56;;;37.73;91.14
49216;BME280;45943;53.148;8.204;2022-09-09T12:12:51;100839.88;;;36.10;73.05
49216;BME280;45943;53.148;8.204;2022-09-09T12:15:19;100837.72;;;35.63;58.67
49216;BME280;45943;53.148;8.204;2022-09-09T12:17:55;100841.53;;;35.38;60.09
49216;BME280;45943;53.148;8.204;2022-09-09T12:20:26;100841.44;;;35.53;63.24
49216;BME280;45943;53.148;8.204;2022-09-09T12:28:18;100844.03;;;34.75;49.04
49216;BME280;45943;53.148;8.204;2022-09-09T12:30:57;100850.25;;;34.41;48.88
49216;BME280;45943;53.148;8.204;2022-09-09T12:33:34;100844.69;;;34.26;50.22
49216;BME280;45943;53.148;8.204;2022-09-09T12:36:02;100854.09;;;34.66;46.14
49216;BME280;45943;53.148;8.204;2022-09-09T12:38:32;100852.25;;;34.05;48.32
49216;BME280;45943;53.148;8.204;2022-09-09T12:41:01;100844.09;;;33.43;46.44
49216;BME280;45943;53.148;8.204;2022-09-09T12:43:28;100848.19;;;33.15;48.83
49216;BME280;45943;53.148;8.204;2022-09-09T12:46:01;100837.41;;;33.33;50.96
49216;BME280;45943;53.148;8.204;2022-09-09T12:48:35;100828.28;;;33.79;49.80
49216;BME280;45943;53.148;8.204;2022-09-09T12:51:05;100832.16;;;33.78;48.49
49216;BME280;45943;53.148;8.204;2022-09-09T12:53:43;100831.63;;;34.01;46.82
49216;BME280;45943;53.148;8.204;2022-09-09T12:56:18;100823.56;;;34.05;45.54
49216;BME280;45943;53.148;8.204;2022-09-09T12:58:47;100817.16;;;33.89;45.88
49216;BME280;45943;53.148;8.204;2022-09-09T13:01:22;100815.22;;;34.05;47.06
49216;BME280;45943;53.148;8.204;2022-09-09T13:03:54;100811.00;;;33.61;46.74
49216;BME280;45943;53.148;8.204;2022-09-09T13:06:28;100811.56;;;33.38;45.01
49216;BME280;45943;53.148;8.204;2022-09-09T13:08:56;100813.66;;;32.95;46.00
49216;BME280;45943;53.148;8.204;2022-09-09T13:11:26;100810.34;;;33.14;47.00
49216;BME280;45943;53.148;8.204;2022-09-09T13:13:57;100811.78;;;33.26;44.46
49216;BME280;45943;53.148;8.204;2022-09-09T13:16:30;100810.41;;;33.29;45.42
49216;BME280;45943;53.148;8.204;2022-09-09T13:18:59;100807.28;;;33.05;43.98
49216;BME280;45943;53.148;8.204;2022-09-09T13:21:31;100808.66;;;32.97;45.34
49216;BME280;45943;53.148;8.204;2022-09-09T13:23:58;100807.81;;;33.02;45.14
49216;BME280;45943;53.148;8.204;2022-09-09T13:26:28;100825.47;;;33.38;44.71
49216;BME280;45943;53.148;8.204;2022-09-09T13:28:55;100824.25;;;33.08;43.87
49216;BME280;45943;53.148;8.204;2022-09-09T13:31:40;100829.94;;;33.80;42.20
49216;BME280;45943;53.148;8.204;2022-09-09T13:34:10;100834.13;;;34.13;42.06
49216;BME280;45943;53.148;8.204;2022-09-09T13:36:50;100832.16;;;33.78;43.61
49216;BME280;45943;53.148;8.204;2022-09-09T13:39:17;100834.09;;;33.57;43.06
49216;BME280;45943;53.148;8.204;2022-09-09T13:41:44;100830.78;;;33.55;42.75
49216;BME280;45943;53.148;8.204;2022-09-09T13:44:14;100840.25;;;33.89;42.42
49216;BME280;45943;53.148;8.204;2022-09-09T13:46:45;100829.66;;;33.46;43.43
49216;BME280;45943;53.148;8.204;2022-09-09T13:54:10;100847.47;;;35.16;41.00
49216;BME280;45943;53.148;8.204;2022-09-09T13:56:38;100838.41;;;35.45;40.46
49216;BME280;45943;53.148;8.204;2022-09-09T13:59:08;100840.84;;;35.56;41.13
49216;BME280;45943;53.148;8.204;2022-09-09T14:01:37;100847.00;;;35.04;40.46
49216;BME280;45943;53.148;8.204;2022-09-09T14:04:04;100845.69;;;34.71;40.67
49216;BME280;45943;53.148;8.204;2022-09-09T14:06:32;100848.56;;;33.69;40.05
49216;BME280;45943;53.148;8.204;2022-09-09T14:08:58;100840.03;;;32.88;40.79
49216;BME280;45943;53.148;8.204;2022-09-09T14:11:24;100840.91;;;32.98;40.61
49216;BME280;45943;53.148;8.204;2022-09-09T14:13:50;100827.06;;;33.19;41.06
49216;BME280;45943;53.148;8.204;2022-09-09T14:16:17;100827.69;;;33.46;40.51
49216;BME280;45943;53.148;8.204;2022-09-09T14:18:43;100828.84;;;33.86;39.01
49216;BME280;45943;53.148;8.204;2022-09-09T14:21:11;100826.34;;;34.05;38.20
49216;BME280;45943;53.148;8.204;2022-09-09T14:23:37;100818.53;;;33.86;39.51
49216;BME280;45943;53.148;8.204;2022-09-09T14:26:04;100814.03;;;33.34;39.35
49216;BME280;45943;53.148;8.204;2022-09-09T14:28:31;100816.31;;;33.68;39.08
49216;BME280;45943;53.148;8.204;2022-09-09T14:30:59;100812.13;;;33.71;39.59
49216;BME280;45943;53.148;8.204;2022-09-09T14:33:26;100821.84;;;34.29;39.11
49216;BME280;45943;53.148;8.204;2022-09-09T14:35:58;100817.69;;;33.81;39.60
49216;BME280;45943;53.148;8.204;2022-09-09T14:38:28;100808.78;;;33.58;40.29
49216;BME280;45943;53.148;8.204;2022-09-09T14:40:55;100820.47;;;33.50;39.56
49216;BME280;45943;53.148;8.204;2022-09-09T14:43:21;100817.06;;;34.55;39.28
49216;BME280;45943;53.148;8.204;2022-09-09T14:45:47;100820.06;;;34.69;37.79
49216;BME280;45943;53.148;8.204;2022-09-09T14:48:14;100821.59;;;34.10;38.32
49216;BME280;45943;53.148;8.204;2022-09-09T14:50:40;100821.53;;;34.56;37.68
49216;BME280;45943;53.148;8.204;2022-09-09T14:53:07;100806.78;;;34.30;37.93
49216;BME280;45943;53.148;8.204;2022-09-09T14:55:34;100802.91;;;34.21;38.62
49216;BME280;45943;53.148;8.204;2022-09-09T14:58:00;100797.13;;;33.92;38.20
49216;BME280;45943;53.148;8.204;2022-09-09T15:00:26;100796.81;;;33.37;38.81
49216;BME280;45943;53.148;8.204;2022-09-09T15:02:53;100795.38;;;33.25;39.09
49216;BME280;45943;53.148;8.204;2022-09-09T15:05:19;100802.06;;;33.24;39.10
49216;BME280;45943;53.148;8.204;2022-09-09T15:07:46;100805.34;;;33.05;39.89